sensor_id;sensor_type;location;lat;lon;timestamp;temperature;humidity
49222;DHT22;35047;37.588;-122.048;2023-03-02T00:01:38;19.50;37.70
49222;DHT22;35047;37.588;-122.048;2023-03-02T00:04:08;19.40;38.30
49222;DHT22;35047;37.588;-122.048;2023-03-02T00:06:37;19.40;37.90
49222;DHT22;35047;37.588;-122.048;2023-03-02T00:09:04;19.40;38.20
49222;DHT22;35047;37.588;-122.048;2023-03-02T00:11:33;19.40;38.50
49222;DHT22;35047;37.588;-122.048;2023-03-02T00:14:00;19.40;38.80
49222;DHT22;35047;37.588;-122.048;2023-03-02T00:16:26;19.40;38.40
49222;DHT22;35047;37.588;-122.048;2023-03-02T00:18:53;19.40;38.70
49222;DHT22;35047;37.588;-122.048;2023-03-02T00:21:19;19.30;38.90
49222;DHT22;35047;37.588;-122.048;2023-03-02T00:23:46;19.30;37.40
49222;DHT22;35047;37.588;-122.048;2023-03-02T00:26:12;19.30;37.30
49222;DHT22;35047;37.588;-122.048;2023-03-02T00:28:39;19.10;37.20
49222;DHT22;35047;37.588;-122.048;2023-03-02T00:31:05;19.10;38.70
49222;DHT22;35047;37.588;-122.048;2023-03-02T00:33:32;19.20;39.40
49222;DHT22;35047;37.588;-122.048;2023-03-02T00:36:00;19.20;38.60
49222;DHT22;35047;37.588;-122.048;2023-03-02T00:38:26;19.20;39.10
49222;DHT22;35047;37.588;-122.048;2023-03-02T00:40:53;19.20;38.20
49222;DHT22;35047;37.588;-122.048;2023-03-02T00:43:22;19.10;41.00
49222;DHT22;35047;37.588;-122.048;2023-03-02T00:45:55;19.20;45.60
49222;DHT22;35047;37.588;-122.048;2023-03-02T00:48:22;19.10;46.10
49222;DHT22;35047;37.588;-122.048;2023-03-02T00:50:49;19.10;41.30
49222;DHT22;35047;37.588;-122.048;2023-03-02T00:53:16;19.10;40.20
49222;DHT22;35047;37.588;-122.048;2023-03-02T00:55:52;19.00;39.00
49222;DHT22;35047;37.588;-122.048;2023-03-02T00:58:19;19.00;40.00
49222;DHT22;35047;37.588;-122.048;2023-03-02T01:00:46;18.90;39.20
49222;DHT22;35047;37.588;-122.048;2023-03-02T01:03:14;19.00;38.80
49222;DHT22;35047;37.588;-122.048;2023-03-02T01:05:40;18.90;39.30
49222;DHT22;35047;37.588;-122.048;2023-03-02T01:08:06;18.90;38.70
49222;DHT22;35047;37.588;-122.048;2023-03-02T01:10:33;18.90;39.50
49222;DHT22;35047;37.588;-122.048;2023-03-02T01:13:00;18.80;38.50
49222;DHT22;35047;37.588;-122.048;2023-03-02T01:15:27;18.80;39.30
49222;DHT22;35047;37.588;-122.048;2023-03-02T01:17:53;18.70;37.90
49222;DHT22;35047;37.588;-122.048;2023-03-02T01:20:19;18.60;39.50
49222;DHT22;35047;37.588;-122.048;2023-03-02T01:22:46;18.60;39.00
49222;DHT22;35047;37.588;-122.048;2023-03-02T01:25:12;18.60;39.40
49222;DHT22;35047;37.588;-122.048;2023-03-02T01:27:39;18.60;40.10
49222;DHT22;35047;37.588;-122.048;2023-03-02T01:30:06;18.50;39.10
49222;DHT22;35047;37.588;-122.048;2023-03-02T01:32:33;18.50;40.40
49222;DHT22;35047;37.588;-122.048;2023-03-02T01:34:59;18.50;40.30
49222;DHT22;35047;37.588;-122.048;2023-03-02T01:37:26;18.50;42.00
49222;DHT22;35047;37.588;-122.048;2023-03-02T01:39:53;18.50;40.90
49222;DHT22;35047;37.588;-122.048;2023-03-02T01:42:19;18.40;40.30
49222;DHT22;35047;37.588;-122.048;2023-03-02T01:44:51;18.50;39.20
49222;DHT22;35047;37.588;-122.048;2023-03-02T01:47:43;18.50;40.20
49222;DHT22;35047;37.588;-122.048;2023-03-02T01:52:39;18.40;40.90
49222;DHT22;35047;37.588;-122.048;2023-03-02T01:55:08;18.40;41.40
49222;DHT22;35047;37.588;-122.048;2023-03-02T01:57:40;18.40;42.30
49222;DHT22;35047;37.588;-122.048;2023-03-02T02:00:13;18.30;43.50
49222;DHT22;35047;37.588;-122.048;2023-03-02T02:02:41;18.30;43.80
49222;DHT22;35047;37.588;-122.048;2023-03-02T02:05:09;18.20;43.80
49222;DHT22;35047;37.588;-122.048;2023-03-02T02:07:38;18.10;41.80
49222;DHT22;35047;37.588;-122.048;2023-03-02T02:10:05;18.10;42.30
49222;DHT22;35047;37.588;-122.048;2023-03-02T02:12:32;18.00;41.80
49222;DHT22;35047;37.588;-122.048;2023-03-02T02:14:59;18.00;40.50
49222;DHT22;35047;37.588;-122.048;2023-03-02T02:17:29;17.90;39.20
49222;DHT22;35047;37.588;-122.048;2023-03-02T02:23:04;17.80;41.40
49222;DHT22;35047;37.588;-122.048;2023-03-02T02:28:22;17.60;42.00
49222;DHT22;35047;37.588;-122.048;2023-03-02T02:30:55;17.60;42.50
49222;DHT22;35047;37.588;-122.048;2023-03-02T02:33:24;17.60;43.60
49222;DHT22;35047;37.588;-122.048;2023-03-02T02:35:54;17.50;42.10
49222;DHT22;35047;37.588;-122.048;2023-03-02T02:38:25;17.40;43.50
49222;DHT22;35047;37.588;-122.048;2023-03-02T02:41:00;17.30;43.60
49222;DHT22;35047;37.588;-122.048;2023-03-02T02:43:30;17.30;41.90
49222;DHT22;35047;37.588;-122.048;2023-03-02T02:45:58;17.20;43.00
49222;DHT22;35047;37.588;-122.048;2023-03-02T02:48:27;17.20;44.00
49222;DHT22;35047;37.588;-122.048;2023-03-02T02:50:57;17.10;44.50
49222;DHT22;35047;37.588;-122.048;2023-03-02T02:53:52;17.10;44.10
49222;DHT22;35047;37.588;-122.048;2023-03-02T02:56:36;17.10;45.00
49222;DHT22;35047;37.588;-122.048;2023-03-02T02:59:16;17.10;45.80
49222;DHT22;35047;37.588;-122.048;2023-03-02T03:01:45;17.10;46.50
49222;DHT22;35047;37.588;-122.048;2023-03-02T03:04:17;17.00;46.20
49222;DHT22;35047;37.588;-122.048;2023-03-02T03:09:21;16.90;46.90
49222;DHT22;35047;37.588;-122.048;2023-03-02T03:11:54;16.80;46.80
49222;DHT22;35047;37.588;-122.048;2023-03-02T03:14:27;16.70;47.30
49222;DHT22;35047;37.588;-122.048;2023-03-02T03:16:54;16.70;47.50
49222;DHT22;35047;37.588;-122.048;2023-03-02T03:19:26;16.60;47.90
49222;DHT22;35047;37.588;-122.048;2023-03-02T03:21:55;16.50;48.20
49222;DHT22;35047;37.588;-122.048;2023-03-02T03:24:23;16.40;48.30
49222;DHT22;35047;37.588;-122.048;2023-03-02T03:26:51;16.40;48.70
49222;DHT22;35047;37.588;-122.048;2023-03-02T03:29:20;16.30;49.00
49222;DHT22;35047;37.588;-122.048;2023-03-02T03:31:54;16.20;49.50
49222;DHT22;35047;37.588;-122.048;2023-03-02T03:34:22;16.10;50.30
49222;DHT22;35047;37.588;-122.048;2023-03-02T03:36:48;16.10;50.80
49222;DHT22;35047;37.588;-122.048;2023-03-02T03:39:15;16.00;51.20
49222;DHT22;35047;37.588;-122.048;2023-03-02T03:41:43;15.90;51.30
49222;DHT22;35047;37.588;-122.048;2023-03-02T03:44:10;15.80;51.70
49222;DHT22;35047;37.588;-122.048;2023-03-02T03:46:36;15.80;52.50
49222;DHT22;35047;37.588;-122.048;2023-03-02T03:49:03;15.70;53.10
49222;DHT22;35047;37.588;-122.048;2023-03-02T03:51:31;15.70;52.90
49222;DHT22;35047;37.588;-122.048;2023-03-02T03:54:02;15.60;53.60
49222;DHT22;35047;37.588;-122.048;2023-03-02T03:56:32;15.50;54.20
49222;DHT22;35047;37.588;-122.048;2023-03-02T03:59:03;15.40;54.00
49222;DHT22;35047;37.588;-122.048;2023-03-02T04:01:44;15.40;54.00
49222;DHT22;35047;37.588;-122.048;2023-03-02T04:04:12;15.40;54.00
49222;DHT22;35047;37.588;-122.048;2023-03-02T04:06:39;15.30;54.20
49222;DHT22;35047;37.588;-122.048;2023-03-02T04:09:06;15.20;54.60
49222;DHT22;35047;37.588;-122.048;2023-03-02T04:11:34;15.20;55.80
49222;DHT22;35047;37.588;-122.048;2023-03-02T04:14:01;15.10;55.20
49222;DHT22;35047;37.588;-122.048;2023-03-02T04:16:28;15.10;55.10
49222;DHT22;35047;37.588;-122.048;2023-03-02T04:18:55;15.00;54.80
49222;DHT22;35047;37.588;-122.048;2023-03-02T04:21:22;15.00;52.20
49222;DHT22;35047;37.588;-122.048;2023-03-02T04:23:49;15.00;50.60
49222;DHT22;35047;37.588;-122.048;2023-03-02T04:26:16;14.90;51.20
49222;DHT22;35047;37.588;-122.048;2023-03-02T04:28:43;14.90;51.90
49222;DHT22;35047;37.588;-122.048;2023-03-02T04:31:10;14.90;52.40
49222;DHT22;35047;37.588;-122.048;2023-03-02T04:33:36;14.90;52.30
49222;DHT22;35047;37.588;-122.048;2023-03-02T04:36:04;14.90;51.90
49222;DHT22;35047;37.588;-122.048;2023-03-02T04:38:30;14.90;51.90
49222;DHT22;35047;37.588;-122.048;2023-03-02T04:40:58;14.90;52.30
49222;DHT22;35047;37.588;-122.048;2023-03-02T04:43:24;14.90;52.30
49222;DHT22;35047;37.588;-122.048;2023-03-02T04:45:52;14.90;52.40
49222;DHT22;35047;37.588;-122.048;2023-03-02T04:48:19;14.90;52.90
49222;DHT22;35047;37.588;-122.048;2023-03-02T04:50:46;14.80;52.70
49222;DHT22;35047;37.588;-122.048;2023-03-02T04:53:13;14.80;52.50
49222;DHT22;35047;37.588;-122.048;2023-03-02T04:55:39;14.80;52.20
49222;DHT22;35047;37.588;-122.048;2023-03-02T04:58:06;14.70;52.40
49222;DHT22;35047;37.588;-122.048;2023-03-02T05:00:33;14.70;53.40
49222;DHT22;35047;37.588;-122.048;2023-03-02T05:03:03;14.70;53.60
49222;DHT22;35047;37.588;-122.048;2023-03-02T05:05:30;14.60;53.60
49222;DHT22;35047;37.588;-122.048;2023-03-02T05:07:57;14.60;53.80
49222;DHT22;35047;37.588;-122.048;2023-03-02T05:10:25;14.50;54.30
49222;DHT22;35047;37.588;-122.048;2023-03-02T05:12:52;14.40;54.10
49222;DHT22;35047;37.588;-122.048;2023-03-02T05:15:32;14.40;54.50
49222;DHT22;35047;37.588;-122.048;2023-03-02T05:17:59;14.30;55.10
49222;DHT22;35047;37.588;-122.048;2023-03-02T05:20:26;14.20;53.90
49222;DHT22;35047;37.588;-122.048;2023-03-02T05:22:59;14.10;54.30
49222;DHT22;35047;37.588;-122.048;2023-03-02T05:25:28;14.10;54.20
49222;DHT22;35047;37.588;-122.048;2023-03-02T05:27:54;14.00;54.50
49222;DHT22;35047;37.588;-122.048;2023-03-02T05:30:22;14.00;54.80
49222;DHT22;35047;37.588;-122.048;2023-03-02T05:32:49;13.90;54.90
49222;DHT22;35047;37.588;-122.048;2023-03-02T05:35:17;13.90;55.00
49222;DHT22;35047;37.588;-122.048;2023-03-02T05:37:43;13.90;55.20
49222;DHT22;35047;37.588;-122.048;2023-03-02T05:40:16;13.90;55.50
49222;DHT22;35047;37.588;-122.048;2023-03-02T05:42:43;13.90;55.60
49222;DHT22;35047;37.588;-122.048;2023-03-02T05:45:20;13.80;55.70
49222;DHT22;35047;37.588;-122.048;2023-03-02T05:47:47;13.80;55.80
49222;DHT22;35047;37.588;-122.048;2023-03-02T05:50:14;13.70;56.10
49222;DHT22;35047;37.588;-122.048;2023-03-02T05:52:40;13.70;56.30
49222;DHT22;35047;37.588;-122.048;2023-03-02T05:55:07;13.60;56.40
49222;DHT22;35047;37.588;-122.048;2023-03-02T05:57:35;13.60;56.70
49222;DHT22;35047;37.588;-122.048;2023-03-02T06:00:01;13.60;56.80
49222;DHT22;35047;37.588;-122.048;2023-03-02T06:02:27;13.60;57.10
49222;DHT22;35047;37.588;-122.048;2023-03-02T06:04:54;13.50;57.50
49222;DHT22;35047;37.588;-122.048;2023-03-02T06:07:20;13.50;57.90
49222;DHT22;35047;37.588;-122.048;2023-03-02T06:09:47;13.50;57.50
49222;DHT22;35047;37.588;-122.048;2023-03-02T06:12:14;13.50;57.50
49222;DHT22;35047;37.588;-122.048;2023-03-02T06:14:41;13.40;57.00
49222;DHT22;35047;37.588;-122.048;2023-03-02T06:17:07;13.40;56.90
49222;DHT22;35047;37.588;-122.048;2023-03-02T06:19:33;13.40;56.90
49222;DHT22;35047;37.588;-122.048;2023-03-02T06:22:00;13.40;56.30
49222;DHT22;35047;37.588;-122.048;2023-03-02T06:24:27;13.40;55.70
49222;DHT22;35047;37.588;-122.048;2023-03-02T06:26:54;13.40;55.80
49222;DHT22;35047;37.588;-122.048;2023-03-02T06:29:21;13.40;56.10
49222;DHT22;35047;37.588;-122.048;2023-03-02T06:31:47;13.40;55.40
49222;DHT22;35047;37.588;-122.048;2023-03-02T06:34:14;13.40;55.60
49222;DHT22;35047;37.588;-122.048;2023-03-02T06:36:41;13.50;55.70
49222;DHT22;35047;37.588;-122.048;2023-03-02T06:39:08;13.40;56.20
49222;DHT22;35047;37.588;-122.048;2023-03-02T06:41:45;13.50;56.40
49222;DHT22;35047;37.588;-122.048;2023-03-02T06:44:13;13.50;56.20
49222;DHT22;35047;37.588;-122.048;2023-03-02T06:46:40;13.50;55.90
49222;DHT22;35047;37.588;-122.048;2023-03-02T06:49:08;13.50;56.00
49222;DHT22;35047;37.588;-122.048;2023-03-02T06:51:36;13.50;56.20
49222;DHT22;35047;37.588;-122.048;2023-03-02T06:54:04;13.40;56.20
49222;DHT22;35047;37.588;-122.048;2023-03-02T06:56:32;13.50;56.30
49222;DHT22;35047;37.588;-122.048;2023-03-02T06:58:58;13.50;56.40
49222;DHT22;35047;37.588;-122.048;2023-03-02T07:01:25;13.40;56.80
49222;DHT22;35047;37.588;-122.048;2023-03-02T07:03:51;13.40;57.40
49222;DHT22;35047;37.588;-122.048;2023-03-02T07:06:18;13.30;57.10
49222;DHT22;35047;37.588;-122.048;2023-03-02T07:08:44;13.30;57.60
49222;DHT22;35047;37.588;-122.048;2023-03-02T07:11:11;13.20;57.80
49222;DHT22;35047;37.588;-122.048;2023-03-02T07:13:38;13.20;58.00
49222;DHT22;35047;37.588;-122.048;2023-03-02T07:16:13;13.10;58.40
49222;DHT22;35047;37.588;-122.048;2023-03-02T07:18:40;13.10;58.20
49222;DHT22;35047;37.588;-122.048;2023-03-02T07:21:07;13.00;58.50
49222;DHT22;35047;37.588;-122.048;2023-03-02T07:23:33;13.00;58.70
49222;DHT22;35047;37.588;-122.048;2023-03-02T07:26:00;12.90;58.90
49222;DHT22;35047;37.588;-122.048;2023-03-02T07:28:27;12.90;59.50
49222;DHT22;35047;37.588;-122.048;2023-03-02T07:30:53;12.80;59.90
49222;DHT22;35047;37.588;-122.048;2023-03-02T07:33:20;12.80;60.40
49222;DHT22;35047;37.588;-122.048;2023-03-02T07:35:48;12.70;60.60
49222;DHT22;35047;37.588;-122.048;2023-03-02T07:38:14;12.70;61.10
49222;DHT22;35047;37.588;-122.048;2023-03-02T07:40:43;12.70;61.20
49222;DHT22;35047;37.588;-122.048;2023-03-02T07:43:10;12.60;61.30
49222;DHT22;35047;37.588;-122.048;2023-03-02T07:45:36;12.60;61.10
49222;DHT22;35047;37.588;-122.048;2023-03-02T07:48:03;12.60;61.10
49222;DHT22;35047;37.588;-122.048;2023-03-02T07:50:30;12.60;61.10
49222;DHT22;35047;37.588;-122.048;2023-03-02T07:52:57;12.60;61.00
49222;DHT22;35047;37.588;-122.048;2023-03-02T07:55:24;12.50;61.00
49222;DHT22;35047;37.588;-122.048;2023-03-02T07:57:51;12.50;60.80
49222;DHT22;35047;37.588;-122.048;2023-03-02T08:00:17;12.50;60.40
49222;DHT22;35047;37.588;-122.048;2023-03-02T08:02:44;12.50;60.20
49222;DHT22;35047;37.588;-122.048;2023-03-02T08:05:11;12.50;60.30
49222;DHT22;35047;37.588;-122.048;2023-03-02T08:07:38;12.50;60.00
49222;DHT22;35047;37.588;-122.048;2023-03-02T08:10:05;12.50;59.50
49222;DHT22;35047;37.588;-122.048;2023-03-02T08:12:32;12.50;60.40
49222;DHT22;35047;37.588;-122.048;2023-03-02T08:14:58;12.50;59.80
49222;DHT22;35047;37.588;-122.048;2023-03-02T08:17:25;12.50;59.30
49222;DHT22;35047;37.588;-122.048;2023-03-02T08:19:51;12.50;59.60
49222;DHT22;35047;37.588;-122.048;2023-03-02T08:22:18;12.50;60.10
49222;DHT22;35047;37.588;-122.048;2023-03-02T08:24:44;12.50;60.20
49222;DHT22;35047;37.588;-122.048;2023-03-02T08:27:15;12.40;60.50
49222;DHT22;35047;37.588;-122.048;2023-03-02T08:29:41;12.40;60.60
49222;DHT22;35047;37.588;-122.048;2023-03-02T08:32:08;12.40;61.00
49222;DHT22;35047;37.588;-122.048;2023-03-02T08:34:35;12.30;61.50
49222;DHT22;35047;37.588;-122.048;2023-03-02T08:37:02;12.30;61.90
49222;DHT22;35047;37.588;-122.048;2023-03-02T08:39:28;12.20;61.70
49222;DHT22;35047;37.588;-122.048;2023-03-02T08:41:56;12.20;62.40
49222;DHT22;35047;37.588;-122.048;2023-03-02T08:44:22;12.20;61.70
49222;DHT22;35047;37.588;-122.048;2023-03-02T08:46:50;12.10;61.60
49222;DHT22;35047;37.588;-122.048;2023-03-02T08:49:18;12.10;62.10
49222;DHT22;35047;37.588;-122.048;2023-03-02T08:51:44;12.00;62.10
49222;DHT22;35047;37.588;-122.048;2023-03-02T08:54:11;12.00;62.50
49222;DHT22;35047;37.588;-122.048;2023-03-02T08:56:39;11.90;62.60
49222;DHT22;35047;37.588;-122.048;2023-03-02T08:59:08;11.90;62.50
49222;DHT22;35047;37.588;-122.048;2023-03-02T09:01:37;11.90;62.50
49222;DHT22;35047;37.588;-122.048;2023-03-02T09:04:05;11.90;62.30
49222;DHT22;35047;37.588;-122.048;2023-03-02T09:06:35;11.80;62.50
49222;DHT22;35047;37.588;-122.048;2023-03-02T09:09:03;11.80;62.70
49222;DHT22;35047;37.588;-122.048;2023-03-02T09:11:29;11.80;62.40
49222;DHT22;35047;37.588;-122.048;2023-03-02T09:13:56;11.80;63.10
49222;DHT22;35047;37.588;-122.048;2023-03-02T09:16:23;11.90;62.90
49222;DHT22;35047;37.588;-122.048;2023-03-02T09:18:51;11.90;62.80
49222;DHT22;35047;37.588;-122.048;2023-03-02T09:21:18;11.80;62.20
49222;DHT22;35047;37.588;-122.048;2023-03-02T09:23:45;11.80;62.90
49222;DHT22;35047;37.588;-122.048;2023-03-02T09:26:11;11.70;62.50
49222;DHT22;35047;37.588;-122.048;2023-03-02T09:28:39;11.70;63.10
49222;DHT22;35047;37.588;-122.048;2023-03-02T09:31:06;11.70;63.00
49222;DHT22;35047;37.588;-122.048;2023-03-02T09:33:33;11.60;63.10
49222;DHT22;35047;37.588;-122.048;2023-03-02T09:36:04;11.60;63.30
49222;DHT22;35047;37.588;-122.048;2023-03-02T09:38:30;11.50;63.50
49222;DHT22;35047;37.588;-122.048;2023-03-02T09:41:11;11.50;63.40
49222;DHT22;35047;37.588;-122.048;2023-03-02T09:46:53;11.50;63.50
49222;DHT22;35047;37.588;-122.048;2023-03-02T09:49:46;11.40;63.30
49222;DHT22;35047;37.588;-122.048;2023-03-02T09:52:34;11.40;63.70
49222;DHT22;35047;37.588;-122.048;2023-03-02T09:57:40;11.30;64.10
49222;DHT22;35047;37.588;-122.048;2023-03-02T10:00:18;11.30;63.90
49222;DHT22;35047;37.588;-122.048;2023-03-02T10:03:02;11.30;63.50
49222;DHT22;35047;37.588;-122.048;2023-03-02T10:05:38;11.20;63.40
49222;DHT22;35047;37.588;-122.048;2023-03-02T10:08:09;11.20;63.50
49222;DHT22;35047;37.588;-122.048;2023-03-02T10:19:33;11.10;64.00
49222;DHT22;35047;37.588;-122.048;2023-03-02T10:22:19;11.00;64.20
49222;DHT22;35047;37.588;-122.048;2023-03-02T10:25:07;11.00;64.50
49222;DHT22;35047;37.588;-122.048;2023-03-02T10:27:42;11.00;64.80
49222;DHT22;35047;37.588;-122.048;2023-03-02T10:30:19;11.00;64.80
49222;DHT22;35047;37.588;-122.048;2023-03-02T10:32:51;11.00;64.70
49222;DHT22;35047;37.588;-122.048;2023-03-02T10:35:23;10.90;65.00
49222;DHT22;35047;37.588;-122.048;2023-03-02T10:38:11;10.90;65.00
49222;DHT22;35047;37.588;-122.048;2023-03-02T10:40:56;10.90;64.90
49222;DHT22;35047;37.588;-122.048;2023-03-02T10:44:07;10.90;64.90
49222;DHT22;35047;37.588;-122.048;2023-03-02T10:46:43;10.90;65.20
49222;DHT22;35047;37.588;-122.048;2023-03-02T10:52:03;10.90;65.70
49222;DHT22;35047;37.588;-122.048;2023-03-02T10:54:32;10.90;65.60
49222;DHT22;35047;37.588;-122.048;2023-03-02T10:57:01;10.80;66.00
49222;DHT22;35047;37.588;-122.048;2023-03-02T11:04:37;10.80;66.20
49222;DHT22;35047;37.588;-122.048;2023-03-02T11:09:34;10.70;66.20
49222;DHT22;35047;37.588;-122.048;2023-03-02T11:12:00;10.70;66.40
49222;DHT22;35047;37.588;-122.048;2023-03-02T11:14:27;10.70;66.10
49222;DHT22;35047;37.588;-122.048;2023-03-02T11:16:54;10.70;66.30
49222;DHT22;35047;37.588;-122.048;2023-03-02T11:19:34;10.70;66.00
49222;DHT22;35047;37.588;-122.048;2023-03-02T11:22:25;10.70;66.20
49222;DHT22;35047;37.588;-122.048;2023-03-02T11:24:55;10.70;66.10
49222;DHT22;35047;37.588;-122.048;2023-03-02T11:27:35;10.60;66.00
49222;DHT22;35047;37.588;-122.048;2023-03-02T11:30:13;10.60;66.00
49222;DHT22;35047;37.588;-122.048;2023-03-02T11:38:03;10.50;66.50
49222;DHT22;35047;37.588;-122.048;2023-03-02T11:40:44;10.50;66.60
49222;DHT22;35047;37.588;-122.048;2023-03-02T11:43:12;10.50;66.70
49222;DHT22;35047;37.588;-122.048;2023-03-02T11:45:47;10.40;66.80
49222;DHT22;35047;37.588;-122.048;2023-03-02T11:48:41;10.40;66.70
49222;DHT22;35047;37.588;-122.048;2023-03-02T11:51:13;10.40;66.80
49222;DHT22;35047;37.588;-122.048;2023-03-02T11:53:44;10.40;67.00
49222;DHT22;35047;37.588;-122.048;2023-03-02T11:56:11;10.30;66.80
49222;DHT22;35047;37.588;-122.048;2023-03-02T11:58:38;10.30;66.60
49222;DHT22;35047;37.588;-122.048;2023-03-02T12:01:11;10.30;66.50
49222;DHT22;35047;37.588;-122.048;2023-03-02T12:03:40;10.30;65.90
49222;DHT22;35047;37.588;-122.048;2023-03-02T12:09:04;10.30;65.10
49222;DHT22;35047;37.588;-122.048;2023-03-02T12:11:35;10.30;65.30
49222;DHT22;35047;37.588;-122.048;2023-03-02T12:14:23;10.30;65.10
49222;DHT22;35047;37.588;-122.048;2023-03-02T12:16:51;10.30;64.70
49222;DHT22;35047;37.588;-122.048;2023-03-02T12:19:38;10.30;64.40
49222;DHT22;35047;37.588;-122.048;2023-03-02T12:22:07;10.30;64.10
49222;DHT22;35047;37.588;-122.048;2023-03-02T12:24:37;10.30;64.90
49222;DHT22;35047;37.588;-122.048;2023-03-02T12:32:30;10.40;66.00
49222;DHT22;35047;37.588;-122.048;2023-03-02T12:37:56;10.30;65.50
49222;DHT22;35047;37.588;-122.048;2023-03-02T12:42:59;10.20;66.00
49222;DHT22;35047;37.588;-122.048;2023-03-02T12:46:00;10.20;66.50
49222;DHT22;35047;37.588;-122.048;2023-03-02T12:51:22;10.30;66.70
49222;DHT22;35047;37.588;-122.048;2023-03-02T12:54:00;10.30;66.30
49222;DHT22;35047;37.588;-122.048;2023-03-02T12:56:27;10.20;66.40
49222;DHT22;35047;37.588;-122.048;2023-03-02T12:58:54;10.20;66.50
49222;DHT22;35047;37.588;-122.048;2023-03-02T13:01:26;10.20;66.40
49222;DHT22;35047;37.588;-122.048;2023-03-02T13:03:53;10.10;66.70
49222;DHT22;35047;37.588;-122.048;2023-03-02T13:06:22;10.10;66.60
49222;DHT22;35047;37.588;-122.048;2023-03-02T13:08:51;10.10;66.90
49222;DHT22;35047;37.588;-122.048;2023-03-02T13:11:35;10.00;67.20
49222;DHT22;35047;37.588;-122.048;2023-03-02T13:14:26;9.90;67.30
49222;DHT22;35047;37.588;-122.048;2023-03-02T13:16:58;9.90;67.60
49222;DHT22;35047;37.588;-122.048;2023-03-02T13:19:28;9.90;67.70
49222;DHT22;35047;37.588;-122.048;2023-03-02T13:21:59;9.80;67.80
49222;DHT22;35047;37.588;-122.048;2023-03-02T13:24:32;9.80;68.20
49222;DHT22;35047;37.588;-122.048;2023-03-02T13:27:23;9.80;68.20
49222;DHT22;35047;37.588;-122.048;2023-03-02T13:29:50;9.70;68.40
49222;DHT22;35047;37.588;-122.048;2023-03-02T13:32:34;9.70;68.50
49222;DHT22;35047;37.588;-122.048;2023-03-02T13:35:15;9.70;68.40
49222;DHT22;35047;37.588;-122.048;2023-03-02T13:37:43;9.70;68.50
49222;DHT22;35047;37.588;-122.048;2023-03-02T13:42:49;9.70;68.60
49222;DHT22;35047;37.588;-122.048;2023-03-02T13:45:28;9.60;68.60
49222;DHT22;35047;37.588;-122.048;2023-03-02T13:47:57;9.60;68.80
49222;DHT22;35047;37.588;-122.048;2023-03-02T13:50:30;9.60;69.00
49222;DHT22;35047;37.588;-122.048;2023-03-02T13:53:01;9.60;68.80
49222;DHT22;35047;37.588;-122.048;2023-03-02T13:55:32;9.50;68.80
49222;DHT22;35047;37.588;-122.048;2023-03-02T13:58:00;9.50;69.20
49222;DHT22;35047;37.588;-122.048;2023-03-02T14:00:32;9.50;69.60
49222;DHT22;35047;37.588;-122.048;2023-03-02T14:02:59;9.40;69.50
49222;DHT22;35047;37.588;-122.048;2023-03-02T14:05:27;9.40;69.70
49222;DHT22;35047;37.588;-122.048;2023-03-02T14:08:01;9.40;69.70
49222;DHT22;35047;37.588;-122.048;2023-03-02T14:10:28;9.30;70.00
49222;DHT22;35047;37.588;-122.048;2023-03-02T14:13:02;9.20;69.70
49222;DHT22;35047;37.588;-122.048;2023-03-02T14:15:31;9.30;70.00
49222;DHT22;35047;37.588;-122.048;2023-03-02T14:17:57;9.20;69.70
49222;DHT22;35047;37.588;-122.048;2023-03-02T14:20:25;9.30;70.10
49222;DHT22;35047;37.588;-122.048;2023-03-02T14:22:51;9.20;70.00
49222;DHT22;35047;37.588;-122.048;2023-03-02T14:25:17;9.20;70.60
49222;DHT22;35047;37.588;-122.048;2023-03-02T14:27:45;9.20;69.90
49222;DHT22;35047;37.588;-122.048;2023-03-02T14:30:18;9.20;70.00
49222;DHT22;35047;37.588;-122.048;2023-03-02T14:32:45;9.20;69.70
49222;DHT22;35047;37.588;-122.048;2023-03-02T14:35:14;9.20;69.70
49222;DHT22;35047;37.588;-122.048;2023-03-02T14:37:46;9.20;69.90
49222;DHT22;35047;37.588;-122.048;2023-03-02T14:40:24;9.20;70.10
49222;DHT22;35047;37.588;-122.048;2023-03-02T14:42:51;9.20;70.10
49222;DHT22;35047;37.588;-122.048;2023-03-02T14:45:19;9.20;70.20
49222;DHT22;35047;37.588;-122.048;2023-03-02T14:47:46;9.10;70.40
49222;DHT22;35047;37.588;-122.048;2023-03-02T14:50:13;9.10;70.60
49222;DHT22;35047;37.588;-122.048;2023-03-02T14:52:48;9.10;70.70
49222;DHT22;35047;37.588;-122.048;2023-03-02T14:55:27;9.10;70.80
49222;DHT22;35047;37.588;-122.048;2023-03-02T14:57:59;9.10;70.60
49222;DHT22;35047;37.588;-122.048;2023-03-02T15:00:28;9.20;70.60
49222;DHT22;35047;37.588;-122.048;2023-03-02T15:02:54;9.20;70.90
49222;DHT22;35047;37.588;-122.048;2023-03-02T15:05:21;9.20;71.20
49222;DHT22;35047;37.588;-122.048;2023-03-02T15:07:48;9.20;71.40
49222;DHT22;35047;37.588;-122.048;2023-03-02T15:10:19;9.20;71.40
49222;DHT22;35047;37.588;-122.048;2023-03-02T15:12:46;9.20;71.30
49222;DHT22;35047;37.588;-122.048;2023-03-02T15:15:12;9.30;71.10
49222;DHT22;35047;37.588;-122.048;2023-03-02T15:17:40;9.30;71.10
49222;DHT22;35047;37.588;-122.048;2023-03-02T15:20:09;9.30;71.30
49222;DHT22;35047;37.588;-122.048;2023-03-02T15:22:37;9.30;71.50
49222;DHT22;35047;37.588;-122.048;2023-03-02T15:25:04;9.30;71.80
49222;DHT22;35047;37.588;-122.048;2023-03-02T15:27:31;9.30;71.90
49222;DHT22;35047;37.588;-122.048;2023-03-02T15:29:58;9.40;72.10
49222;DHT22;35047;37.588;-122.048;2023-03-02T15:32:24;9.40;72.30
49222;DHT22;35047;37.588;-122.048;2023-03-02T15:34:51;9.40;72.40
49222;DHT22;35047;37.588;-122.048;2023-03-02T15:37:17;9.50;72.60
49222;DHT22;35047;37.588;-122.048;2023-03-02T15:39:44;9.50;72.40
49222;DHT22;35047;37.588;-122.048;2023-03-02T15:42:10;9.60;72.80
49222;DHT22;35047;37.588;-122.048;2023-03-02T15:44:37;9.70;73.00
49222;DHT22;35047;37.588;-122.048;2023-03-02T15:47:03;9.70;73.20
49222;DHT22;35047;37.588;-122.048;2023-03-02T15:49:30;9.90;73.20
49222;DHT22;35047;37.588;-122.048;2023-03-02T15:51:58;9.90;73.20
49222;DHT22;35047;37.588;-122.048;2023-03-02T15:54:25;10.00;73.40
49222;DHT22;35047;37.588;-122.048;2023-03-02T15:56:52;10.20;72.90
49222;DHT22;35047;37.588;-122.048;2023-03-02T15:59:20;10.30;72.50
49222;DHT22;35047;37.588;-122.048;2023-03-02T16:01:48;10.40;72.40
49222;DHT22;35047;37.588;-122.048;2023-03-02T16:04:14;10.50;72.20
49222;DHT22;35047;37.588;-122.048;2023-03-02T16:06:40;10.60;72.10